Terminal Aerodrome Forecast
Issued by NWS

Home | Current Version | Previous Version | Graphics & Text | Print | Product List | Glossary On
Versions: 1 2 3 4 5 6 7 8 9 10 11 12 13
000
FTUS45 KGGW 121813 RRA
TAFOLF
TAF
KOLF 121813Z 1218/1318 26008KT P6SM SKC
     FM122100 28013KT P6SM SKC
     FM130100 29018G26KT P6SM BKN180
     FM130200 29018G26KT P6SM BKN160 WS020/31045KT
     FM130500 29018G26KT P6SM SCT140
     FM131200 28013KT P6SM FEW160=

USA.gov is the U.S. government's official web portal to all federal, state and local government web resources and services.